sensor_id;sensor_type;location;lat;lon;timestamp;pressure;altitude;pressure_sealevel;temperature;humidity
68994;BME280;56054;50.968;5.816;2022-11-28T00:01:05;100226.69;;;9.08;94.21
68994;BME280;56054;50.968;5.816;2022-11-28T00:04:13;100226.75;;;9.09;94.60
68994;BME280;56054;50.968;5.816;2022-11-28T00:07:20;100224.25;;;9.11;93.87
68994;BME280;56054;50.968;5.816;2022-11-28T00:10:27;100224.09;;;9.08;93.97
68994;BME280;56054;50.968;5.816;2022-11-28T00:13:34;100201.75;;;9.10;93.70
68994;BME280;56054;50.968;5.816;2022-11-28T00:16:43;100214.72;;;9.10;93.62
68994;BME280;56054;50.968;5.816;2022-11-28T00:19:50;100205.13;;;9.09;93.21
68994;BME280;56054;50.968;5.816;2022-11-28T00:22:57;100202.34;;;9.06;93.20
68994;BME280;56054;50.968;5.816;2022-11-28T00:26:07;100200.75;;;9.08;93.07
68994;BME280;56054;50.968;5.816;2022-11-28T00:29:15;100191.88;;;9.04;92.98
68994;BME280;56054;50.968;5.816;2022-11-28T00:32:22;100195.56;;;9.08;92.01
68994;BME280;56054;50.968;5.816;2022-11-28T00:35:29;100195.41;;;9.05;92.46
68994;BME280;56054;50.968;5.816;2022-11-28T00:38:37;100193.06;;;9.09;91.55
68994;BME280;56054;50.968;5.816;2022-11-28T00:41:52;100191.38;;;9.10;90.35
68994;BME280;56054;50.968;5.816;2022-11-28T00:44:59;100197.53;;;9.12;90.35
68994;BME280;56054;50.968;5.816;2022-11-28T00:48:12;100201.03;;;9.12;90.34
68994;BME280;56054;50.968;5.816;2022-11-28T00:51:22;100189.56;;;9.09;90.65
68994;BME280;56054;50.968;5.816;2022-11-28T00:54:29;100181.72;;;9.07;90.00
68994;BME280;56054;50.968;5.816;2022-11-28T00:57:37;100173.94;;;9.07;90.04
68994;BME280;56054;50.968;5.816;2022-11-28T01:00:44;100175.63;;;9.07;90.23
68994;BME280;56054;50.968;5.816;2022-11-28T01:03:52;100180.09;;;9.09;89.24
68994;BME280;56054;50.968;5.816;2022-11-28T01:06:59;100182.22;;;9.02;90.69
68994;BME280;56054;50.968;5.816;2022-11-28T01:10:11;100180.47;;;9.00;91.39
68994;BME280;56054;50.968;5.816;2022-11-28T01:13:18;100181.06;;;8.96;92.41
68994;BME280;56054;50.968;5.816;2022-11-28T01:16:26;100183.31;;;8.90;93.86
68994;BME280;56054;50.968;5.816;2022-11-28T01:19:33;100181.78;;;8.94;93.32
68994;BME280;56054;50.968;5.816;2022-11-28T01:22:41;100184.09;;;8.89;93.78
68994;BME280;56054;50.968;5.816;2022-11-28T01:25:48;100190.09;;;8.88;94.38
68994;BME280;56054;50.968;5.816;2022-11-28T01:28:56;100197.75;;;8.87;94.27
68994;BME280;56054;50.968;5.816;2022-11-28T01:32:03;100201.16;;;8.86;94.57
68994;BME280;56054;50.968;5.816;2022-11-28T01:35:10;100198.34;;;8.83;95.26
68994;BME280;56054;50.968;5.816;2022-11-28T01:38:17;100199.69;;;8.76;95.99
68994;BME280;56054;50.968;5.816;2022-11-28T01:41:26;100194.59;;;8.77;95.65
68994;BME280;56054;50.968;5.816;2022-11-28T01:47:40;100200.91;;;8.68;97.55
68994;BME280;56054;50.968;5.816;2022-11-28T01:50:50;100203.91;;;8.61;97.99
68994;BME280;56054;50.968;5.816;2022-11-28T01:53:58;100200.53;;;8.62;98.52
68994;BME280;56054;50.968;5.816;2022-11-28T01:57:10;100192.38;;;8.55;99.19
68994;BME280;56054;50.968;5.816;2022-11-28T02:00:20;100191.41;;;8.53;99.03
68994;BME280;56054;50.968;5.816;2022-11-28T02:03:38;100190.94;;;8.61;99.43
68994;BME280;56054;50.968;5.816;2022-11-28T02:06:47;100184.41;;;8.52;99.27
68994;BME280;56054;50.968;5.816;2022-11-28T02:09:54;100185.00;;;8.48;100.00
68994;BME280;56054;50.968;5.816;2022-11-28T02:24:36;100181.44;;;8.33;100.00
68994;BME280;56054;50.968;5.816;2022-11-28T02:42:19;100160.38;;;8.13;100.00
68994;BME280;56054;50.968;5.816;2022-11-28T02:46:06;100160.38;;;8.13;100.00
68994;BME280;56054;50.968;5.816;2022-11-28T02:53:42;100151.00;;;8.15;100.00
68994;BME280;56054;50.968;5.816;2022-11-28T02:56:53;100151.41;;;8.08;100.00
68994;BME280;56054;50.968;5.816;2022-11-28T03:00:00;100148.03;;;8.09;100.00
68994;BME280;56054;50.968;5.816;2022-11-28T03:10:41;100143.66;;;8.08;100.00
68994;BME280;56054;50.968;5.816;2022-11-28T03:24:43;100152.63;;;8.00;100.00
68994;BME280;56054;50.968;5.816;2022-11-28T03:32:04;100138.09;;;8.02;100.00
68994;BME280;56054;50.968;5.816;2022-11-28T03:39:58;100137.13;;;8.00;100.00
68994;BME280;56054;50.968;5.816;2022-11-28T03:43:23;100138.28;;;8.05;100.00
68994;BME280;56054;50.968;5.816;2022-11-28T03:46:42;100133.81;;;8.03;100.00
68994;BME280;56054;50.968;5.816;2022-11-28T03:50:02;100136.19;;;8.00;100.00
68994;BME280;56054;50.968;5.816;2022-11-28T03:53:24;100143.28;;;8.02;100.00
68994;BME280;56054;50.968;5.816;2022-11-28T03:56:53;100142.66;;;8.06;100.00
68994;BME280;56054;50.968;5.816;2022-11-28T04:00:07;100135.22;;;7.98;100.00
68994;BME280;56054;50.968;5.816;2022-11-28T04:14:07;100136.63;;;7.92;100.00
68994;BME280;56054;50.968;5.816;2022-11-28T04:17:42;100137.53;;;7.93;100.00
68994;BME280;56054;50.968;5.816;2022-11-28T04:25:14;100149.25;;;7.88;100.00
68994;BME280;56054;50.968;5.816;2022-11-28T04:28:31;100141.50;;;7.88;100.00
68994;BME280;56054;50.968;5.816;2022-11-28T04:32:20;100149.25;;;7.88;100.00
68994;BME280;56054;50.968;5.816;2022-11-28T04:35:59;100148.84;;;7.82;100.00
68994;BME280;56054;50.968;5.816;2022-11-28T04:39:14;100152.94;;;7.78;100.00
68994;BME280;56054;50.968;5.816;2022-11-28T04:42:34;100152.72;;;7.75;100.00
68994;BME280;56054;50.968;5.816;2022-11-28T04:45:50;100148.25;;;7.72;100.00
68994;BME280;56054;50.968;5.816;2022-11-28T04:49:03;100153.66;;;7.76;100.00
68994;BME280;56054;50.968;5.816;2022-11-28T04:55:51;100146.06;;;7.65;100.00
68994;BME280;56054;50.968;5.816;2022-11-28T04:59:22;100148.47;;;7.62;100.00
68994;BME280;56054;50.968;5.816;2022-11-28T05:02:33;100140.50;;;7.59;100.00
68994;BME280;56054;50.968;5.816;2022-11-28T05:06:20;100139.31;;;7.67;100.00
68994;BME280;56054;50.968;5.816;2022-11-28T05:09:28;100143.28;;;7.62;100.00
68994;BME280;56054;50.968;5.816;2022-11-28T05:12:35;100146.69;;;7.61;100.00
68994;BME280;56054;50.968;5.816;2022-11-28T05:15:42;100149.25;;;7.61;100.00
68994;BME280;56054;50.968;5.816;2022-11-28T05:18:49;100149.97;;;7.59;100.00
68994;BME280;56054;50.968;5.816;2022-11-28T05:21:56;100147.69;;;7.63;100.00
68994;BME280;56054;50.968;5.816;2022-11-28T05:25:03;100140.50;;;7.59;100.00
68994;BME280;56054;50.968;5.816;2022-11-28T05:28:11;100128.78;;;7.64;100.00
68994;BME280;56054;50.968;5.816;2022-11-28T05:31:19;100133.63;;;7.60;100.00
68994;BME280;56054;50.968;5.816;2022-11-28T05:34:28;100133.81;;;7.63;100.00
68994;BME280;56054;50.968;5.816;2022-11-28T05:37:37;100138.09;;;7.62;100.00
68994;BME280;56054;50.968;5.816;2022-11-28T05:40:44;100138.22;;;7.64;100.00
68994;BME280;56054;50.968;5.816;2022-11-28T05:43:54;100135.63;;;7.64;100.00
68994;BME280;56054;50.968;5.816;2022-11-28T05:47:01;100134.63;;;7.62;100.00
68994;BME280;56054;50.968;5.816;2022-11-28T05:50:08;100141.88;;;7.67;100.00
68994;BME280;56054;50.968;5.816;2022-11-28T05:53:22;100135.53;;;7.62;100.00
68994;BME280;56054;50.968;5.816;2022-11-28T05:56:29;100137.34;;;7.63;100.00
68994;BME280;56054;50.968;5.816;2022-11-28T05:59:37;100135.72;;;7.65;100.00
68994;BME280;56054;50.968;5.816;2022-11-28T06:02:47;100140.88;;;7.65;100.00
68994;BME280;56054;50.968;5.816;2022-11-28T06:05:54;100142.69;;;7.66;100.00
68994;BME280;56054;50.968;5.816;2022-11-28T06:09:03;100148.06;;;7.69;100.00
68994;BME280;56054;50.968;5.816;2022-11-28T06:12:15;100147.16;;;7.69;100.00
68994;BME280;56054;50.968;5.816;2022-11-28T06:15:31;100141.13;;;7.68;100.00
68994;BME280;56054;50.968;5.816;2022-11-28T06:18:39;100148.06;;;7.69;100.00
68994;BME280;56054;50.968;5.816;2022-11-28T06:21:49;100154.13;;;7.70;100.00
68994;BME280;56054;50.968;5.816;2022-11-28T06:24:56;100148.94;;;7.70;100.00
68994;BME280;56054;50.968;5.816;2022-11-28T06:28:03;100156.69;;;7.70;100.00
68994;BME280;56054;50.968;5.816;2022-11-28T06:31:17;100157.59;;;7.70;100.00
68994;BME280;56054;50.968;5.816;2022-11-28T06:34:27;100148.25;;;7.72;100.00
68994;BME280;56054;50.968;5.816;2022-11-28T06:37:34;100149.66;;;7.67;100.00
68994;BME280;56054;50.968;5.816;2022-11-28T06:40:42;100148.16;;;7.71;100.00
68994;BME280;56054;50.968;5.816;2022-11-28T06:43:54;100157.72;;;7.72;100.00
68994;BME280;56054;50.968;5.816;2022-11-28T06:47:01;100153.13;;;7.68;100.00
68994;BME280;56054;50.968;5.816;2022-11-28T06:50:12;100163.19;;;7.63;100.00
68994;BME280;56054;50.968;5.816;2022-11-28T06:53:19;100162.56;;;7.67;100.00
68994;BME280;56054;50.968;5.816;2022-11-28T06:56:26;100158.22;;;7.66;100.00
68994;BME280;56054;50.968;5.816;2022-11-28T06:59:33;100153.13;;;7.68;100.00
68994;BME280;56054;50.968;5.816;2022-11-28T07:02:40;100162.38;;;7.64;100.00
68994;BME280;56054;50.968;5.816;2022-11-28T07:05:52;100172.84;;;7.66;100.00
68994;BME280;56054;50.968;5.816;2022-11-28T07:08:59;100158.03;;;7.63;100.00
68994;BME280;56054;50.968;5.816;2022-11-28T07:12:06;100173.53;;;7.63;100.00
68994;BME280;56054;50.968;5.816;2022-11-28T07:15:13;100163.97;;;7.62;100.00
68994;BME280;56054;50.968;5.816;2022-11-28T07:18:20;100174.31;;;7.62;100.00
68994;BME280;56054;50.968;5.816;2022-11-28T07:21:39;100179.47;;;7.62;100.00
68994;BME280;56054;50.968;5.816;2022-11-28T07:24:46;100175.13;;;7.61;100.00
68994;BME280;56054;50.968;5.816;2022-11-28T07:27:53;100175.81;;;7.59;100.00
68994;BME280;56054;50.968;5.816;2022-11-28T07:31:32;100174.91;;;7.58;100.00
68994;BME280;56054;50.968;5.816;2022-11-28T07:34:39;100190.41;;;7.58;100.00
68994;BME280;56054;50.968;5.816;2022-11-28T07:37:46;100182.38;;;7.54;100.00
68994;BME280;56054;50.968;5.816;2022-11-28T07:41:10;100186.44;;;7.50;100.00
68994;BME280;56054;50.968;5.816;2022-11-28T07:44:27;100202.06;;;7.52;100.00
68994;BME280;56054;50.968;5.816;2022-11-28T07:47:34;100201.53;;;7.44;100.00
68994;BME280;56054;50.968;5.816;2022-11-28T07:50:41;100198.34;;;7.48;100.00
68994;BME280;56054;50.968;5.816;2022-11-28T07:53:54;100205.09;;;7.46;100.00
68994;BME280;56054;50.968;5.816;2022-11-28T07:57:00;100201.75;;;7.47;100.00
68994;BME280;56054;50.968;5.816;2022-11-28T08:00:07;100208.69;;;7.48;100.00
68994;BME280;56054;50.968;5.816;2022-11-28T08:03:18;100202.63;;;7.47;100.00
68994;BME280;56054;50.968;5.816;2022-11-28T08:06:36;100205.34;;;7.49;100.00
68994;BME280;56054;50.968;5.816;2022-11-28T08:09:43;100205.41;;;7.50;100.00
68994;BME280;56054;50.968;5.816;2022-11-28T08:12:50;100214.75;;;7.48;100.00
68994;BME280;56054;50.968;5.816;2022-11-28T08:15:57;100210.50;;;7.49;100.00
68994;BME280;56054;50.968;5.816;2022-11-28T08:19:04;100212.97;;;7.47;100.00
68994;BME280;56054;50.968;5.816;2022-11-28T08:22:13;100210.81;;;7.54;100.00
68994;BME280;56054;50.968;5.816;2022-11-28T08:25:19;100209.88;;;7.53;100.00
68994;BME280;56054;50.968;5.816;2022-11-28T08:28:27;100213.59;;;7.57;100.00
68994;BME280;56054;50.968;5.816;2022-11-28T08:31:36;100217.94;;;7.58;100.00
68994;BME280;56054;50.968;5.816;2022-11-28T08:34:47;100208.41;;;7.57;100.00
68994;BME280;56054;50.968;5.816;2022-11-28T08:37:57;100213.59;;;7.57;100.00
68994;BME280;56054;50.968;5.816;2022-11-28T08:41:10;100224.00;;;7.58;100.00
68994;BME280;56054;50.968;5.816;2022-11-28T08:44:25;100215.50;;;7.59;100.00
68994;BME280;56054;50.968;5.816;2022-11-28T08:47:32;100213.78;;;7.60;100.00
68994;BME280;56054;50.968;5.816;2022-11-28T08:50:45;100208.41;;;7.57;100.00
68994;BME280;56054;50.968;5.816;2022-11-28T08:54:18;100220.66;;;7.59;100.00
68994;BME280;56054;50.968;5.816;2022-11-28T08:57:24;100222.44;;;7.60;100.00
68994;BME280;56054;50.968;5.816;2022-11-28T09:00:31;100217.69;;;7.66;100.00
68994;BME280;56054;50.968;5.816;2022-11-28T09:03:38;100221.75;;;7.63;100.00
68994;BME280;56054;50.968;5.816;2022-11-28T09:06:47;100223.56;;;7.64;100.00
68994;BME280;56054;50.968;5.816;2022-11-28T09:09:57;100231.31;;;7.64;100.00
68994;BME280;56054;50.968;5.816;2022-11-28T09:13:09;100230.69;;;7.68;100.00
68994;BME280;56054;50.968;5.816;2022-11-28T09:16:16;100228.53;;;7.74;100.00
68994;BME280;56054;50.968;5.816;2022-11-28T09:19:32;100222.25;;;7.70;100.00
68994;BME280;56054;50.968;5.816;2022-11-28T09:22:39;100240.56;;;7.74;100.00
68994;BME280;56054;50.968;5.816;2022-11-28T09:25:47;100234.59;;;7.75;100.00
68994;BME280;56054;50.968;5.816;2022-11-28T09:28:55;100233.91;;;7.77;100.00
68994;BME280;56054;50.968;5.816;2022-11-28T09:32:01;100242.34;;;7.75;100.00
68994;BME280;56054;50.968;5.816;2022-11-28T09:35:08;100235.59;;;7.77;100.00
68994;BME280;56054;50.968;5.816;2022-11-28T09:38:18;100243.47;;;7.78;100.00
68994;BME280;56054;50.968;5.816;2022-11-28T09:44:59;100249.13;;;7.86;100.00
68994;BME280;56054;50.968;5.816;2022-11-28T09:48:40;100240.25;;;7.82;100.00
68994;BME280;56054;50.968;5.816;2022-11-28T09:52:20;100244.06;;;7.87;100.00
68994;BME280;56054;50.968;5.816;2022-11-28T09:58:56;100237.59;;;7.94;100.00
68994;BME280;56054;50.968;5.816;2022-11-28T10:05:47;100232.13;;;8.03;100.00
68994;BME280;56054;50.968;5.816;2022-11-28T10:13:31;100236.81;;;8.08;100.00
68994;BME280;56054;50.968;5.816;2022-11-28T10:20:21;100233.13;;;8.18;100.00
68994;BME280;56054;50.968;5.816;2022-11-28T10:23:54;100237.72;;;8.22;100.00
68994;BME280;56054;50.968;5.816;2022-11-28T10:27:04;100231.72;;;8.23;100.00
68994;BME280;56054;50.968;5.816;2022-11-28T10:30:20;100236.19;;;8.26;100.00
68994;BME280;56054;50.968;5.816;2022-11-28T10:33:52;100239.78;;;8.28;100.00
68994;BME280;56054;50.968;5.816;2022-11-28T10:40:20;100239.97;;;8.31;100.00
68994;BME280;56054;50.968;5.816;2022-11-28T10:43:53;100238.38;;;8.33;100.00
68994;BME280;56054;50.968;5.816;2022-11-28T10:51:21;100233.50;;;8.38;100.00
68994;BME280;56054;50.968;5.816;2022-11-28T10:54:58;100246.56;;;8.39;100.00
68994;BME280;56054;50.968;5.816;2022-11-28T11:01:43;100246.56;;;8.39;100.00
68994;BME280;56054;50.968;5.816;2022-11-28T11:04:52;100237.88;;;8.39;100.00
68994;BME280;56054;50.968;5.816;2022-11-28T11:08:19;100252.72;;;8.41;100.00
68994;BME280;56054;50.968;5.816;2022-11-28T11:11:31;100250.25;;;8.43;100.00
68994;BME280;56054;50.968;5.816;2022-11-28T11:14:39;100249.66;;;8.47;100.00
68994;BME280;56054;50.968;5.816;2022-11-28T11:17:47;100248.06;;;8.49;100.00
68994;BME280;56054;50.968;5.816;2022-11-28T11:24:22;100238.78;;;8.52;100.00
68994;BME280;56054;50.968;5.816;2022-11-28T11:28:00;100247.66;;;8.56;100.00
68994;BME280;56054;50.968;5.816;2022-11-28T11:31:29;100246.75;;;8.55;100.00
68994;BME280;56054;50.968;5.816;2022-11-28T11:34:43;100255.63;;;8.59;100.00
68994;BME280;56054;50.968;5.816;2022-11-28T11:38:05;100247.84;;;8.59;100.00
68994;BME280;56054;50.968;5.816;2022-11-28T11:41:30;100244.44;;;8.60;100.00
68994;BME280;56054;50.968;5.816;2022-11-28T11:49:52;100241.25;;;8.64;100.00
68994;BME280;56054;50.968;5.816;2022-11-28T11:53:33;100241.63;;;8.70;100.00
68994;BME280;56054;50.968;5.816;2022-11-28T11:57:16;100246.81;;;8.70;100.00
68994;BME280;56054;50.968;5.816;2022-11-28T12:04:26;100248.50;;;8.70;100.00
68994;BME280;56054;50.968;5.816;2022-11-28T12:37:36;100252.06;;;8.85;100.00
68994;BME280;56054;50.968;5.816;2022-11-28T12:41:19;100250.66;;;8.90;100.00
68994;BME280;56054;50.968;5.816;2022-11-28T12:48:31;100252.03;;;8.98;100.00
68994;BME280;56054;50.968;5.816;2022-11-28T12:55:33;100251.22;;;8.99;100.00
68994;BME280;56054;50.968;5.816;2022-11-28T13:09:36;100239.25;;;9.02;100.00
68994;BME280;56054;50.968;5.816;2022-11-28T13:12:50;100239.25;;;9.02;100.00
68994;BME280;56054;50.968;5.816;2022-11-28T13:19:29;100245.59;;;9.07;100.00
68994;BME280;56054;50.968;5.816;2022-11-28T13:37:20;100239.81;;;9.11;100.00
68994;BME280;56054;50.968;5.816;2022-11-28T13:40:29;100245.88;;;9.11;100.00
68994;BME280;56054;50.968;5.816;2022-11-28T13:43:52;100251.97;;;9.12;100.00
68994;BME280;56054;50.968;5.816;2022-11-28T13:50:37;100253.94;;;9.16;100.00
68994;BME280;56054;50.968;5.816;2022-11-28T13:53:45;100255.75;;;9.17;100.00
68994;BME280;56054;50.968;5.816;2022-11-28T14:01:11;100260.94;;;9.17;100.00
68994;BME280;56054;50.968;5.816;2022-11-28T14:04:18;100261.91;;;9.19;100.00
68994;BME280;56054;50.968;5.816;2022-11-28T14:07:31;100264.50;;;9.19;100.00
68994;BME280;56054;50.968;5.816;2022-11-28T14:20:57;100279.16;;;9.18;100.00
68994;BME280;56054;50.968;5.816;2022-11-28T14:27:36;100274.06;;;9.20;100.00
68994;BME280;56054;50.968;5.816;2022-11-28T14:30:45;100283.63;;;9.21;100.00
68994;BME280;56054;50.968;5.816;2022-11-28T14:37:53;100285.22;;;9.19;100.00
68994;BME280;56054;50.968;5.816;2022-11-28T14:41:04;100278.09;;;9.15;100.00
68994;BME280;56054;50.968;5.816;2022-11-28T14:48:27;100291.81;;;9.14;100.00
68994;BME280;56054;50.968;5.816;2022-11-28T14:54:54;100300.13;;;9.08;100.00
68994;BME280;56054;50.968;5.816;2022-11-28T14:58:02;100306.13;;;9.07;100.00
68994;BME280;56054;50.968;5.816;2022-11-28T15:01:25;100300.72;;;9.04;100.00
68994;BME280;56054;50.968;5.816;2022-11-28T15:12:24;100308.72;;;9.07;100.00
68994;BME280;56054;50.968;5.816;2022-11-28T15:15:35;100316.91;;;9.00;100.00
68994;BME280;56054;50.968;5.816;2022-11-28T15:19:05;100315.03;;;8.97;100.00
68994;BME280;56054;50.968;5.816;2022-11-28T15:22:52;100320.41;;;9.00;100.00
68994;BME280;56054;50.968;5.816;2022-11-28T15:26:00;100310.63;;;8.96;100.00
68994;BME280;56054;50.968;5.816;2022-11-28T15:32:23;100309.84;;;8.97;100.00
68994;BME280;56054;50.968;5.816;2022-11-28T15:35:33;100306.44;;;8.98;100.00
68994;BME280;56054;50.968;5.816;2022-11-28T15:38:49;100309.44;;;8.91;100.00
68994;BME280;56054;50.968;5.816;2022-11-28T15:41:59;100317.63;;;8.84;100.00
68994;BME280;56054;50.968;5.816;2022-11-28T15:45:09;100314.44;;;8.88;100.00
68994;BME280;56054;50.968;5.816;2022-11-28T15:51:50;100316.03;;;8.86;100.00
68994;BME280;56054;50.968;5.816;2022-11-28T15:54:57;100320.09;;;8.83;100.00
68994;BME280;56054;50.968;5.816;2022-11-28T16:01:23;100333.28;;;8.72;100.00
68994;BME280;56054;50.968;5.816;2022-11-28T16:04:31;100326.13;;;8.68;100.00
68994;BME280;56054;50.968;5.816;2022-11-28T16:07:44;100333.59;;;8.64;100.00
68994;BME280;56054;50.968;5.816;2022-11-28T16:10:51;100349.53;;;8.70;100.00
68994;BME280;56054;50.968;5.816;2022-11-28T16:14:01;100340.38;;;8.62;100.00
68994;BME280;56054;50.968;5.816;2022-11-28T16:17:21;100346.06;;;8.56;100.00
68994;BME280;56054;50.968;5.816;2022-11-28T16:20:33;100347.53;;;8.52;100.00
68994;BME280;56054;50.968;5.816;2022-11-28T16:23:41;100362.06;;;8.50;100.00
68994;BME280;56054;50.968;5.816;2022-11-28T16:27:23;100359.09;;;8.57;100.00
68994;BME280;56054;50.968;5.816;2022-11-28T16:30:36;100367.66;;;8.56;100.00
68994;BME280;56054;50.968;5.816;2022-11-28T16:33:44;100365.84;;;8.55;100.00
68994;BME280;56054;50.968;5.816;2022-11-28T16:36:54;100368.75;;;8.60;100.00
68994;BME280;56054;50.968;5.816;2022-11-28T16:40:05;100366.88;;;8.57;100.00
68994;BME280;56054;50.968;5.816;2022-11-28T16:43:23;100372.75;;;8.55;100.00
68994;BME280;56054;50.968;5.816;2022-11-28T16:46:38;100370.66;;;8.49;100.00
68994;BME280;56054;50.968;5.816;2022-11-28T16:50:17;100387.78;;;8.47;100.00
68994;BME280;56054;50.968;5.816;2022-11-28T16:53:48;100382.00;;;8.51;100.00
68994;BME280;56054;50.968;5.816;2022-11-28T16:57:06;100386.97;;;8.48;100.00
68994;BME280;56054;50.968;5.816;2022-11-28T17:00:14;100398.31;;;8.50;100.00
68994;BME280;56054;50.968;5.816;2022-11-28T17:03:48;100395.34;;;8.44;100.00
68994;BME280;56054;50.968;5.816;2022-11-28T17:06:58;100406.91;;;8.49;100.00
68994;BME280;56054;50.968;5.816;2022-11-28T17:10:05;100403.50;;;8.50;100.00
68994;BME280;56054;50.968;5.816;2022-11-28T17:13:12;100408.28;;;8.44;100.00
68994;BME280;56054;50.968;5.816;2022-11-28T17:16:22;100399.53;;;8.42;100.00
68994;BME280;56054;50.968;5.816;2022-11-28T17:19:33;100411.66;;;8.43;100.00
68994;BME280;56054;50.968;5.816;2022-11-28T17:22:44;100417.97;;;8.47;100.00
68994;BME280;56054;50.968;5.816;2022-11-28T17:25:51;100416.84;;;8.43;100.00
68994;BME280;56054;50.968;5.816;2022-11-28T17:28:58;100421.31;;;8.46;100.00
68994;BME280;56054;50.968;5.816;2022-11-28T17:32:10;100422.84;;;8.42;100.00
68994;BME280;56054;50.968;5.816;2022-11-28T17:35:21;100420.25;;;8.42;100.00
68994;BME280;56054;50.968;5.816;2022-11-28T17:38:29;100411.66;;;8.43;100.00
68994;BME280;56054;50.968;5.816;2022-11-28T17:41:38;100428.00;;;8.42;100.00
68994;BME280;56054;50.968;5.816;2022-11-28T17:44:45;100412.25;;;8.39;100.00
68994;BME280;56054;50.968;5.816;2022-11-28T17:47:52;100414.72;;;8.38;100.00
68994;BME280;56054;50.968;5.816;2022-11-28T17:51:01;100419.59;;;8.33;100.00
68994;BME280;56054;50.968;5.816;2022-11-28T17:54:10;100423.06;;;8.33;100.00
68994;BME280;56054;50.968;5.816;2022-11-28T17:57:20;100424.97;;;8.36;100.00
68994;BME280;56054;50.968;5.816;2022-11-28T18:00:28;100416.00;;;8.31;100.00
68994;BME280;56054;50.968;5.816;2022-11-28T18:03:35;100423.19;;;8.35;100.00
68994;BME280;56054;50.968;5.816;2022-11-28T18:06:48;100416.81;;;8.30;100.00
68994;BME280;56054;50.968;5.816;2022-11-28T18:09:55;100414.78;;;8.26;100.00
68994;BME280;56054;50.968;5.816;2022-11-28T18:13:08;100423.44;;;8.26;100.00
68994;BME280;56054;50.968;5.816;2022-11-28T18:16:19;100423.06;;;8.20;100.00
68994;BME280;56054;50.968;5.816;2022-11-28T18:19:26;100427.09;;;8.17;100.00
68994;BME280;56054;50.968;5.816;2022-11-28T18:22:35;100428.03;;;8.17;100.00
68994;BME280;56054;50.968;5.816;2022-11-28T18:25:42;100433.66;;;8.11;100.00
68994;BME280;56054;50.968;5.816;2022-11-28T18:28:54;100430.63;;;8.17;100.00
68994;BME280;56054;50.968;5.816;2022-11-28T18:32:26;100443.81;;;8.08;100.00
68994;BME280;56054;50.968;5.816;2022-11-28T18:35:33;100428.91;;;8.18;100.00
68994;BME280;56054;50.968;5.816;2022-11-28T18:38:41;100430.50;;;8.15;100.00
68994;BME280;56054;50.968;5.816;2022-11-28T18:41:48;100427.34;;;8.20;100.00
68994;BME280;56054;50.968;5.816;2022-11-28T18:44:55;100430.91;;;8.22;100.00
68994;BME280;56054;50.968;5.816;2022-11-28T18:48:08;100431.31;;;8.14;100.00
68994;BME280;56054;50.968;5.816;2022-11-28T18:54:25;100444.72;;;8.09;100.00
68994;BME280;56054;50.968;5.816;2022-11-28T18:57:33;100434.97;;;8.05;100.00
68994;BME280;56054;50.968;5.816;2022-11-28T19:00:43;100444.72;;;8.09;100.00
68994;BME280;56054;50.968;5.816;2022-11-28T19:03:52;100449.78;;;8.07;100.00
68994;BME280;56054;50.968;5.816;2022-11-28T19:07:00;100441.81;;;8.04;100.00
68994;BME280;56054;50.968;5.816;2022-11-28T19:10:08;100448.19;;;8.09;100.00
68994;BME280;56054;50.968;5.816;2022-11-28T19:13:18;100453.47;;;8.11;100.00
68994;BME280;56054;50.968;5.816;2022-11-28T19:16:28;100460.41;;;7.99;100.00
68994;BME280;56054;50.968;5.816;2022-11-28T19:19:37;100456.59;;;7.93;100.00
68994;BME280;56054;50.968;5.816;2022-11-28T19:22:47;100461.88;;;7.95;100.00
68994;BME280;56054;50.968;5.816;2022-11-28T19:26:06;100468.03;;;7.97;100.00
68994;BME280;56054;50.968;5.816;2022-11-28T19:29:15;100461.88;;;7.95;100.00
68994;BME280;56054;50.968;5.816;2022-11-28T19:32:22;100458.28;;;7.93;100.00
68994;BME280;56054;50.968;5.816;2022-11-28T19:35:32;100460.88;;;7.93;100.00
68994;BME280;56054;50.968;5.816;2022-11-28T19:38:40;100455.72;;;7.93;100.00
68994;BME280;56054;50.968;5.816;2022-11-28T19:41:47;100450.16;;;8.00;100.00
68994;BME280;56054;50.968;5.816;2022-11-28T19:44:56;100461.22;;;7.98;100.00
68994;BME280;56054;50.968;5.816;2022-11-28T19:48:04;100465.00;;;8.03;100.00
68994;BME280;56054;50.968;5.816;2022-11-28T19:51:11;100465.69;;;8.00;100.00
68994;BME280;56054;50.968;5.816;2022-11-28T19:54:19;100466.59;;;8.01;100.00
68994;BME280;56054;50.968;5.816;2022-11-28T19:57:28;100470.50;;;8.07;100.00
68994;BME280;56054;50.968;5.816;2022-11-28T20:00:36;100465.91;;;8.03;100.00
68994;BME280;56054;50.968;5.816;2022-11-28T20:03:45;100470.63;;;7.97;100.00
68994;BME280;56054;50.968;5.816;2022-11-28T20:06:53;100472.13;;;7.93;100.00
68994;BME280;56054;50.968;5.816;2022-11-28T20:10:00;100484.53;;;7.86;100.00
68994;BME280;56054;50.968;5.816;2022-11-28T20:13:07;100474.50;;;7.90;100.00
68994;BME280;56054;50.968;5.816;2022-11-28T20:16:16;100477.66;;;7.86;100.00
68994;BME280;56054;50.968;5.816;2022-11-28T20:19:23;100484.31;;;7.83;100.00
68994;BME280;56054;50.968;5.816;2022-11-28T20:22:30;100486.91;;;7.83;100.00
68994;BME280;56054;50.968;5.816;2022-11-28T20:25:36;100493.06;;;7.85;100.00
68994;BME280;56054;50.968;5.816;2022-11-28T20:28:44;100502.63;;;7.86;100.00
68994;BME280;56054;50.968;5.816;2022-11-28T20:31:58;100494.66;;;7.83;100.00
68994;BME280;56054;50.968;5.816;2022-11-28T20:35:05;100506.59;;;7.81;100.00
68994;BME280;56054;50.968;5.816;2022-11-28T20:41:24;100506.66;;;7.94;100.00
68994;BME280;56054;50.968;5.816;2022-11-28T20:44:32;100505.56;;;7.90;100.00
68994;BME280;56054;50.968;5.816;2022-11-28T20:48:04;100502.84;;;7.89;100.00
68994;BME280;56054;50.968;5.816;2022-11-28T20:51:14;100506.16;;;8.00;100.00